sensor_id;sensor_type;location;lat;lon;timestamp;P1;durP1;ratioP1;P2;durP2;ratioP2
21804;SDS011;11064;47.102;15.452;2023-05-20T00:01:35;8.95;;;7.03;;
21804;SDS011;11064;47.102;15.452;2023-05-20T00:04:00;9.02;;;6.80;;
21804;SDS011;11064;47.102;15.452;2023-05-20T00:06:26;7.75;;;6.82;;
21804;SDS011;11064;47.102;15.452;2023-05-20T00:08:52;8.77;;;6.40;;
21804;SDS011;11064;47.102;15.452;2023-05-20T00:11:19;8.98;;;7.10;;
21804;SDS011;11064;47.102;15.452;2023-05-20T00:13:45;8.10;;;7.13;;
21804;SDS011;11064;47.102;15.452;2023-05-20T00:16:11;9.50;;;7.15;;
21804;SDS011;11064;47.102;15.452;2023-05-20T00:18:37;9.57;;;7.30;;
21804;SDS011;11064;47.102;15.452;2023-05-20T00:21:03;8.02;;;7.22;;
21804;SDS011;11064;47.102;15.452;2023-05-20T00:23:28;10.00;;;7.68;;
21804;SDS011;11064;47.102;15.452;2023-05-20T00:25:54;8.82;;;7.55;;
21804;SDS011;11064;47.102;15.452;2023-05-20T00:28:20;12.40;;;7.63;;
21804;SDS011;11064;47.102;15.452;2023-05-20T00:30:47;10.35;;;7.57;;
21804;SDS011;11064;47.102;15.452;2023-05-20T00:33:13;9.73;;;7.32;;
21804;SDS011;11064;47.102;15.452;2023-05-20T00:35:39;11.45;;;7.70;;
21804;SDS011;11064;47.102;15.452;2023-05-20T00:38:05;12.27;;;7.95;;
21804;SDS011;11064;47.102;15.452;2023-05-20T00:40:30;9.05;;;7.63;;
21804;SDS011;11064;47.102;15.452;2023-05-20T00:42:56;11.52;;;7.75;;
21804;SDS011;11064;47.102;15.452;2023-05-20T00:45:22;8.63;;;7.53;;
21804;SDS011;11064;47.102;15.452;2023-05-20T00:47:48;10.25;;;7.70;;
21804;SDS011;11064;47.102;15.452;2023-05-20T00:50:15;10.45;;;7.88;;
21804;SDS011;11064;47.102;15.452;2023-05-20T00:52:42;10.30;;;7.35;;
21804;SDS011;11064;47.102;15.452;2023-05-20T00:55:09;10.32;;;7.57;;
21804;SDS011;11064;47.102;15.452;2023-05-20T00:57:35;9.40;;;7.78;;
21804;SDS011;11064;47.102;15.452;2023-05-20T01:00:03;10.23;;;7.55;;
21804;SDS011;11064;47.102;15.452;2023-05-20T01:02:32;11.88;;;7.43;;
21804;SDS011;11064;47.102;15.452;2023-05-20T01:04:57;10.10;;;7.30;;
21804;SDS011;11064;47.102;15.452;2023-05-20T01:07:24;9.45;;;7.30;;
21804;SDS011;11064;47.102;15.452;2023-05-20T01:09:50;10.40;;;7.32;;
21804;SDS011;11064;47.102;15.452;2023-05-20T01:12:18;10.95;;;7.45;;
21804;SDS011;11064;47.102;15.452;2023-05-20T01:15:18;8.98;;;6.60;;
21804;SDS011;11064;47.102;15.452;2023-05-20T01:17:45;9.00;;;7.13;;
21804;SDS011;11064;47.102;15.452;2023-05-20T01:20:13;11.85;;;7.10;;
21804;SDS011;11064;47.102;15.452;2023-05-20T01:22:46;9.48;;;7.47;;
21804;SDS011;11064;47.102;15.452;2023-05-20T01:25:13;10.27;;;7.75;;
21804;SDS011;11064;47.102;15.452;2023-05-20T01:27:39;11.45;;;7.50;;
21804;SDS011;11064;47.102;15.452;2023-05-20T01:30:04;9.55;;;7.40;;
21804;SDS011;11064;47.102;15.452;2023-05-20T01:32:31;7.18;;;6.47;;
21804;SDS011;11064;47.102;15.452;2023-05-20T01:35:02;9.68;;;6.97;;
21804;SDS011;11064;47.102;15.452;2023-05-20T01:37:30;10.25;;;6.93;;
21804;SDS011;11064;47.102;15.452;2023-05-20T01:39:59;9.32;;;7.30;;
21804;SDS011;11064;47.102;15.452;2023-05-20T01:42:25;9.18;;;7.15;;
21804;SDS011;11064;47.102;15.452;2023-05-20T01:44:52;11.43;;;6.90;;
21804;SDS011;11064;47.102;15.452;2023-05-20T01:47:18;11.05;;;7.18;;
21804;SDS011;11064;47.102;15.452;2023-05-20T01:49:44;8.65;;;6.78;;
21804;SDS011;11064;47.102;15.452;2023-05-20T01:52:11;10.25;;;7.57;;
21804;SDS011;11064;47.102;15.452;2023-05-20T01:54:37;11.25;;;7.80;;
21804;SDS011;11064;47.102;15.452;2023-05-20T01:57:03;10.13;;;7.82;;
21804;SDS011;11064;47.102;15.452;2023-05-20T01:59:29;11.07;;;7.47;;
21804;SDS011;11064;47.102;15.452;2023-05-20T02:01:55;10.18;;;7.85;;
21804;SDS011;11064;47.102;15.452;2023-05-20T02:04:21;10.45;;;8.00;;
21804;SDS011;11064;47.102;15.452;2023-05-20T02:06:46;8.95;;;7.88;;
21804;SDS011;11064;47.102;15.452;2023-05-20T02:09:13;10.07;;;8.25;;
21804;SDS011;11064;47.102;15.452;2023-05-20T02:11:38;10.07;;;8.23;;
21804;SDS011;11064;47.102;15.452;2023-05-20T02:14:04;9.18;;;8.00;;
21804;SDS011;11064;47.102;15.452;2023-05-20T02:16:30;9.80;;;7.70;;
21804;SDS011;11064;47.102;15.452;2023-05-20T02:18:56;10.65;;;7.80;;
21804;SDS011;11064;47.102;15.452;2023-05-20T02:21:22;11.05;;;8.52;;
21804;SDS011;11064;47.102;15.452;2023-05-20T02:23:52;12.65;;;9.25;;
21804;SDS011;11064;47.102;15.452;2023-05-20T02:26:18;9.88;;;8.20;;
21804;SDS011;11064;47.102;15.452;2023-05-20T02:28:44;10.63;;;8.23;;
21804;SDS011;11064;47.102;15.452;2023-05-20T02:31:11;13.88;;;8.90;;
21804;SDS011;11064;47.102;15.452;2023-05-20T02:33:37;9.68;;;8.50;;
21804;SDS011;11064;47.102;15.452;2023-05-20T02:36:03;12.07;;;9.00;;
21804;SDS011;11064;47.102;15.452;2023-05-20T02:38:29;15.50;;;8.93;;
21804;SDS011;11064;47.102;15.452;2023-05-20T02:40:56;10.60;;;8.23;;
21804;SDS011;11064;47.102;15.452;2023-05-20T02:43:23;15.18;;;9.05;;
21804;SDS011;11064;47.102;15.452;2023-05-20T02:45:50;11.18;;;8.90;;
21804;SDS011;11064;47.102;15.452;2023-05-20T02:48:16;10.45;;;8.65;;
21804;SDS011;11064;47.102;15.452;2023-05-20T02:50:41;13.13;;;8.77;;
21804;SDS011;11064;47.102;15.452;2023-05-20T02:53:08;11.95;;;8.60;;
21804;SDS011;11064;47.102;15.452;2023-05-20T02:55:35;10.07;;;8.65;;
21804;SDS011;11064;47.102;15.452;2023-05-20T02:58:01;12.05;;;8.48;;
21804;SDS011;11064;47.102;15.452;2023-05-20T03:00:28;9.60;;;8.60;;
21804;SDS011;11064;47.102;15.452;2023-05-20T03:02:55;10.90;;;8.70;;
21804;SDS011;11064;47.102;15.452;2023-05-20T03:05:23;11.57;;;9.05;;
21804;SDS011;11064;47.102;15.452;2023-05-20T03:07:49;11.55;;;8.82;;
21804;SDS011;11064;47.102;15.452;2023-05-20T03:10:14;10.88;;;8.13;;
21804;SDS011;11064;47.102;15.452;2023-05-20T03:12:40;11.95;;;8.43;;
21804;SDS011;11064;47.102;15.452;2023-05-20T03:15:06;9.93;;;8.40;;
21804;SDS011;11064;47.102;15.452;2023-05-20T03:17:32;11.15;;;8.60;;
21804;SDS011;11064;47.102;15.452;2023-05-20T03:19:58;10.02;;;7.75;;
21804;SDS011;11064;47.102;15.452;2023-05-20T03:22:25;11.50;;;8.15;;
21804;SDS011;11064;47.102;15.452;2023-05-20T03:24:51;11.60;;;8.30;;
21804;SDS011;11064;47.102;15.452;2023-05-20T03:27:17;11.05;;;7.97;;
21804;SDS011;11064;47.102;15.452;2023-05-20T03:29:43;10.48;;;8.43;;
21804;SDS011;11064;47.102;15.452;2023-05-20T03:32:09;9.95;;;8.63;;
21804;SDS011;11064;47.102;15.452;2023-05-20T03:34:34;9.13;;;8.20;;
21804;SDS011;11064;47.102;15.452;2023-05-20T03:37:00;11.98;;;8.65;;
21804;SDS011;11064;47.102;15.452;2023-05-20T03:39:26;11.70;;;8.93;;
21804;SDS011;11064;47.102;15.452;2023-05-20T03:41:52;10.18;;;9.05;;
21804;SDS011;11064;47.102;15.452;2023-05-20T03:44:18;11.27;;;9.10;;
21804;SDS011;11064;47.102;15.452;2023-05-20T03:46:43;9.35;;;8.00;;
21804;SDS011;11064;47.102;15.452;2023-05-20T03:49:09;13.25;;;8.65;;
21804;SDS011;11064;47.102;15.452;2023-05-20T03:51:35;10.15;;;8.57;;
21804;SDS011;11064;47.102;15.452;2023-05-20T03:54:01;9.77;;;7.65;;
21804;SDS011;11064;47.102;15.452;2023-05-20T03:56:26;11.82;;;9.10;;
21804;SDS011;11064;47.102;15.452;2023-05-20T03:58:52;11.40;;;8.20;;
21804;SDS011;11064;47.102;15.452;2023-05-20T04:01:18;12.57;;;8.45;;
21804;SDS011;11064;47.102;15.452;2023-05-20T04:03:45;10.75;;;8.50;;
21804;SDS011;11064;47.102;15.452;2023-05-20T04:06:12;9.40;;;8.10;;
21804;SDS011;11064;47.102;15.452;2023-05-20T04:08:38;11.40;;;8.60;;
21804;SDS011;11064;47.102;15.452;2023-05-20T04:11:04;10.20;;;8.40;;
21804;SDS011;11064;47.102;15.452;2023-05-20T04:13:30;11.18;;;8.20;;
21804;SDS011;11064;47.102;15.452;2023-05-20T04:15:55;11.50;;;8.40;;
21804;SDS011;11064;47.102;15.452;2023-05-20T04:18:21;9.82;;;8.57;;
21804;SDS011;11064;47.102;15.452;2023-05-20T04:20:47;9.05;;;8.05;;
21804;SDS011;11064;47.102;15.452;2023-05-20T04:23:13;9.30;;;7.70;;
21804;SDS011;11064;47.102;15.452;2023-05-20T04:25:38;8.25;;;7.32;;
21804;SDS011;11064;47.102;15.452;2023-05-20T04:28:08;9.00;;;7.47;;
21804;SDS011;11064;47.102;15.452;2023-05-20T04:30:34;9.27;;;6.90;;
21804;SDS011;11064;47.102;15.452;2023-05-20T04:33:00;9.55;;;7.47;;
21804;SDS011;11064;47.102;15.452;2023-05-20T04:35:30;8.23;;;6.63;;
21804;SDS011;11064;47.102;15.452;2023-05-20T04:37:56;8.45;;;7.18;;
21804;SDS011;11064;47.102;15.452;2023-05-20T04:40:21;7.93;;;6.70;;
21804;SDS011;11064;47.102;15.452;2023-05-20T04:42:47;6.82;;;6.13;;
21804;SDS011;11064;47.102;15.452;2023-05-20T04:45:13;8.40;;;6.60;;
21804;SDS011;11064;47.102;15.452;2023-05-20T05:03:11;7.40;;;5.32;;
21804;SDS011;11064;47.102;15.452;2023-05-20T05:05:37;6.60;;;5.55;;
21804;SDS011;11064;47.102;15.452;2023-05-20T05:08:04;6.38;;;5.45;;
21804;SDS011;11064;47.102;15.452;2023-05-20T05:10:31;7.22;;;5.70;;
21804;SDS011;11064;47.102;15.452;2023-05-20T05:12:57;6.15;;;5.55;;
21804;SDS011;11064;47.102;15.452;2023-05-20T05:15:23;6.07;;;5.45;;
21804;SDS011;11064;47.102;15.452;2023-05-20T05:17:49;6.18;;;5.38;;
21804;SDS011;11064;47.102;15.452;2023-05-20T05:20:15;8.82;;;5.60;;
21804;SDS011;11064;47.102;15.452;2023-05-20T05:22:42;8.02;;;5.70;;
21804;SDS011;11064;47.102;15.452;2023-05-20T05:25:08;6.32;;;5.30;;
21804;SDS011;11064;47.102;15.452;2023-05-20T05:27:35;6.35;;;5.68;;
21804;SDS011;11064;47.102;15.452;2023-05-20T05:30:02;6.03;;;5.43;;
21804;SDS011;11064;47.102;15.452;2023-05-20T05:32:28;6.10;;;5.50;;
21804;SDS011;11064;47.102;15.452;2023-05-20T05:34:54;6.78;;;5.57;;
21804;SDS011;11064;47.102;15.452;2023-05-20T05:37:20;8.18;;;6.20;;
21804;SDS011;11064;47.102;15.452;2023-05-20T05:39:46;8.00;;;6.25;;
21804;SDS011;11064;47.102;15.452;2023-05-20T05:42:12;6.72;;;5.57;;
21804;SDS011;11064;47.102;15.452;2023-05-20T05:44:38;7.35;;;5.63;;
21804;SDS011;11064;47.102;15.452;2023-05-20T05:47:04;7.13;;;5.88;;
21804;SDS011;11064;47.102;15.452;2023-05-20T05:49:31;7.70;;;6.45;;
21804;SDS011;11064;47.102;15.452;2023-05-20T05:51:57;8.85;;;6.20;;
21804;SDS011;11064;47.102;15.452;2023-05-20T05:54:23;7.70;;;6.25;;
21804;SDS011;11064;47.102;15.452;2023-05-20T05:56:52;7.60;;;6.30;;
21804;SDS011;11064;47.102;15.452;2023-05-20T05:59:20;6.28;;;5.68;;
21804;SDS011;11064;47.102;15.452;2023-05-20T06:01:46;6.38;;;5.78;;
21804;SDS011;11064;47.102;15.452;2023-05-20T06:04:13;6.22;;;5.43;;
21804;SDS011;11064;47.102;15.452;2023-05-20T06:06:40;6.45;;;5.80;;
21804;SDS011;11064;47.102;15.452;2023-05-20T06:09:06;6.80;;;5.93;;
21804;SDS011;11064;47.102;15.452;2023-05-20T06:11:31;6.93;;;6.05;;
21804;SDS011;11064;47.102;15.452;2023-05-20T06:13:57;8.18;;;6.00;;
21804;SDS011;11064;47.102;15.452;2023-05-20T06:16:24;7.82;;;5.63;;
21804;SDS011;11064;47.102;15.452;2023-05-20T06:18:50;6.82;;;5.85;;
21804;SDS011;11064;47.102;15.452;2023-05-20T06:21:17;7.13;;;5.40;;
21804;SDS011;11064;47.102;15.452;2023-05-20T06:23:43;7.75;;;5.72;;
21804;SDS011;11064;47.102;15.452;2023-05-20T06:26:09;5.63;;;5.07;;
21804;SDS011;11064;47.102;15.452;2023-05-20T06:28:35;5.95;;;5.43;;
21804;SDS011;11064;47.102;15.452;2023-05-20T06:31:01;6.82;;;5.47;;
21804;SDS011;11064;47.102;15.452;2023-05-20T06:33:26;5.70;;;5.00;;
21804;SDS011;11064;47.102;15.452;2023-05-20T06:35:54;6.63;;;5.28;;
21804;SDS011;11064;47.102;15.452;2023-05-20T06:38:20;8.10;;;5.38;;
21804;SDS011;11064;47.102;15.452;2023-05-20T06:40:47;6.38;;;5.53;;
21804;SDS011;11064;47.102;15.452;2023-05-20T06:43:16;7.80;;;5.45;;
21804;SDS011;11064;47.102;15.452;2023-05-20T06:45:42;9.02;;;5.18;;
21804;SDS011;11064;47.102;15.452;2023-05-20T06:48:09;6.93;;;5.07;;
21804;SDS011;11064;47.102;15.452;2023-05-20T06:50:35;7.45;;;4.75;;
21804;SDS011;11064;47.102;15.452;2023-05-20T06:53:02;5.78;;;5.15;;
21804;SDS011;11064;47.102;15.452;2023-05-20T06:55:28;5.85;;;4.80;;
21804;SDS011;11064;47.102;15.452;2023-05-20T06:57:54;6.13;;;5.28;;
21804;SDS011;11064;47.102;15.452;2023-05-20T07:00:20;6.63;;;5.30;;
21804;SDS011;11064;47.102;15.452;2023-05-20T07:02:46;6.00;;;4.93;;
21804;SDS011;11064;47.102;15.452;2023-05-20T07:05:12;6.20;;;5.05;;
21804;SDS011;11064;47.102;15.452;2023-05-20T07:07:38;6.60;;;5.43;;
21804;SDS011;11064;47.102;15.452;2023-05-20T07:10:04;5.32;;;4.82;;
21804;SDS011;11064;47.102;15.452;2023-05-20T07:12:31;5.50;;;4.97;;
21804;SDS011;11064;47.102;15.452;2023-05-20T07:14:57;8.13;;;5.30;;
21804;SDS011;11064;47.102;15.452;2023-05-20T07:17:23;10.00;;;5.45;;
21804;SDS011;11064;47.102;15.452;2023-05-20T07:19:49;7.97;;;5.40;;
21804;SDS011;11064;47.102;15.452;2023-05-20T07:22:15;6.43;;;5.25;;
21804;SDS011;11064;47.102;15.452;2023-05-20T07:24:41;6.95;;;5.22;;
21804;SDS011;11064;47.102;15.452;2023-05-20T07:27:07;6.55;;;5.07;;
21804;SDS011;11064;47.102;15.452;2023-05-20T07:29:33;6.88;;;5.25;;
21804;SDS011;11064;47.102;15.452;2023-05-20T07:32:00;7.43;;;5.40;;
21804;SDS011;11064;47.102;15.452;2023-05-20T07:34:26;6.10;;;4.93;;
21804;SDS011;11064;47.102;15.452;2023-05-20T07:36:52;6.97;;;5.65;;
21804;SDS011;11064;47.102;15.452;2023-05-20T07:39:18;6.90;;;5.20;;
21804;SDS011;11064;47.102;15.452;2023-05-20T07:41:44;9.32;;;5.88;;
21804;SDS011;11064;47.102;15.452;2023-05-20T07:44:09;7.07;;;5.68;;
21804;SDS011;11064;47.102;15.452;2023-05-20T07:46:37;8.35;;;4.88;;
21804;SDS011;11064;47.102;15.452;2023-05-20T07:49:04;6.57;;;5.38;;
21804;SDS011;11064;47.102;15.452;2023-05-20T07:51:30;7.65;;;5.20;;
21804;SDS011;11064;47.102;15.452;2023-05-20T07:53:56;9.18;;;5.32;;
21804;SDS011;11064;47.102;15.452;2023-05-20T07:56:22;6.40;;;5.68;;
21804;SDS011;11064;47.102;15.452;2023-05-20T07:58:55;7.10;;;5.45;;
21804;SDS011;11064;47.102;15.452;2023-05-20T08:01:25;6.57;;;4.80;;
21804;SDS011;11064;47.102;15.452;2023-05-20T08:03:51;7.07;;;5.10;;
21804;SDS011;11064;47.102;15.452;2023-05-20T08:06:17;9.30;;;5.60;;
21804;SDS011;11064;47.102;15.452;2023-05-20T08:08:48;6.68;;;4.80;;
21804;SDS011;11064;47.102;15.452;2023-05-20T08:11:14;5.82;;;5.22;;
21804;SDS011;11064;47.102;15.452;2023-05-20T08:13:39;5.10;;;4.60;;
21804;SDS011;11064;47.102;15.452;2023-05-20T08:16:05;6.15;;;5.07;;
21804;SDS011;11064;47.102;15.452;2023-05-20T08:18:31;8.05;;;5.28;;
21804;SDS011;11064;47.102;15.452;2023-05-20T08:20:59;6.68;;;5.85;;
21804;SDS011;11064;47.102;15.452;2023-05-20T08:23:24;5.90;;;5.20;;
21804;SDS011;11064;47.102;15.452;2023-05-20T08:25:50;8.65;;;5.30;;
21804;SDS011;11064;47.102;15.452;2023-05-20T08:28:16;5.80;;;5.10;;
21804;SDS011;11064;47.102;15.452;2023-05-20T08:30:42;6.45;;;5.13;;
21804;SDS011;11064;47.102;15.452;2023-05-20T08:33:08;7.10;;;4.80;;
21804;SDS011;11064;47.102;15.452;2023-05-20T08:35:34;6.75;;;5.18;;
21804;SDS011;11064;47.102;15.452;2023-05-20T08:38:04;8.35;;;5.97;;
21804;SDS011;11064;47.102;15.452;2023-05-20T08:40:29;8.85;;;5.60;;
21804;SDS011;11064;47.102;15.452;2023-05-20T08:42:55;10.35;;;5.20;;
21804;SDS011;11064;47.102;15.452;2023-05-20T08:45:23;7.88;;;5.70;;
21804;SDS011;11064;47.102;15.452;2023-05-20T08:47:52;7.13;;;5.15;;
21804;SDS011;11064;47.102;15.452;2023-05-20T08:50:19;8.38;;;5.50;;
21804;SDS011;11064;47.102;15.452;2023-05-20T08:52:46;7.78;;;5.40;;
21804;SDS011;11064;47.102;15.452;2023-05-20T08:55:59;9.40;;;5.97;;
21804;SDS011;11064;47.102;15.452;2023-05-20T08:58:10;7.57;;;5.05;;
21804;SDS011;11064;47.102;15.452;2023-05-20T09:00:37;7.25;;;5.70;;
21804;SDS011;11064;47.102;15.452;2023-05-20T09:03:03;7.38;;;5.47;;
21804;SDS011;11064;47.102;15.452;2023-05-20T09:05:29;9.82;;;6.47;;
21804;SDS011;11064;47.102;15.452;2023-05-20T09:08:16;7.82;;;6.10;;
21804;SDS011;11064;47.102;15.452;2023-05-20T09:10:41;9.50;;;5.30;;
21804;SDS011;11064;47.102;15.452;2023-05-20T09:13:07;7.53;;;6.20;;
21804;SDS011;11064;47.102;15.452;2023-05-20T09:15:34;8.57;;;6.35;;
21804;SDS011;11064;47.102;15.452;2023-05-20T09:18:01;14.13;;;6.40;;
21804;SDS011;11064;47.102;15.452;2023-05-20T09:20:29;12.32;;;5.57;;
21804;SDS011;11064;47.102;15.452;2023-05-20T09:22:59;8.60;;;5.90;;
21804;SDS011;11064;47.102;15.452;2023-05-20T09:25:27;7.32;;;5.93;;
21804;SDS011;11064;47.102;15.452;2023-05-20T09:27:53;7.47;;;5.57;;
21804;SDS011;11064;47.102;15.452;2023-05-20T09:30:20;6.53;;;5.07;;
21804;SDS011;11064;47.102;15.452;2023-05-20T09:32:53;7.32;;;5.60;;
21804;SDS011;11064;47.102;15.452;2023-05-20T09:35:21;8.88;;;5.60;;
21804;SDS011;11064;47.102;15.452;2023-05-20T09:37:48;6.85;;;5.10;;
21804;SDS011;11064;47.102;15.452;2023-05-20T09:40:24;5.97;;;5.22;;
21804;SDS011;11064;47.102;15.452;2023-05-20T09:42:52;6.15;;;5.10;;
21804;SDS011;11064;47.102;15.452;2023-05-20T09:45:26;7.00;;;5.53;;
21804;SDS011;11064;47.102;15.452;2023-05-20T09:47:52;7.55;;;5.25;;
21804;SDS011;11064;47.102;15.452;2023-05-20T09:50:20;8.82;;;5.72;;
21804;SDS011;11064;47.102;15.452;2023-05-20T09:52:49;8.73;;;5.68;;
21804;SDS011;11064;47.102;15.452;2023-05-20T09:55:16;9.73;;;5.70;;
21804;SDS011;11064;47.102;15.452;2023-05-20T09:57:43;7.45;;;5.60;;
21804;SDS011;11064;47.102;15.452;2023-05-20T10:00:09;8.45;;;5.30;;
21804;SDS011;11064;47.102;15.452;2023-05-20T10:02:39;6.95;;;5.80;;
21804;SDS011;11064;47.102;15.452;2023-05-20T10:05:16;5.88;;;5.30;;
21804;SDS011;11064;47.102;15.452;2023-05-20T10:10:39;9.57;;;5.40;;
21804;SDS011;11064;47.102;15.452;2023-05-20T10:16:04;7.63;;;5.55;;
21804;SDS011;11064;47.102;15.452;2023-05-20T10:21:38;7.47;;;5.00;;
21804;SDS011;11064;47.102;15.452;2023-05-20T10:24:07;6.80;;;5.47;;
21804;SDS011;11064;47.102;15.452;2023-05-20T10:26:38;10.07;;;5.82;;
21804;SDS011;11064;47.102;15.452;2023-05-20T10:29:15;7.63;;;5.57;;
21804;SDS011;11064;47.102;15.452;2023-05-20T10:31:49;6.53;;;5.68;;
21804;SDS011;11064;47.102;15.452;2023-05-20T10:34:16;9.13;;;6.30;;
21804;SDS011;11064;47.102;15.452;2023-05-20T10:36:44;7.78;;;5.68;;
21804;SDS011;11064;47.102;15.452;2023-05-20T10:39:15;8.32;;;5.57;;
21804;SDS011;11064;47.102;15.452;2023-05-20T10:41:44;6.50;;;5.57;;
21804;SDS011;11064;47.102;15.452;2023-05-20T10:44:10;7.55;;;5.75;;
21804;SDS011;11064;47.102;15.452;2023-05-20T10:46:35;7.25;;;5.82;;
21804;SDS011;11064;47.102;15.452;2023-05-20T10:49:01;7.35;;;5.72;;
21804;SDS011;11064;47.102;15.452;2023-05-20T10:51:27;5.78;;;5.28;;
21804;SDS011;11064;47.102;15.452;2023-05-20T10:53:55;8.25;;;6.20;;
21804;SDS011;11064;47.102;15.452;2023-05-20T10:56:25;7.10;;;5.63;;
21804;SDS011;11064;47.102;15.452;2023-05-20T10:58:52;6.53;;;5.57;;
21804;SDS011;11064;47.102;15.452;2023-05-20T11:01:22;8.35;;;5.82;;
21804;SDS011;11064;47.102;15.452;2023-05-20T11:03:51;6.30;;;5.70;;
21804;SDS011;11064;47.102;15.452;2023-05-20T11:06:23;7.30;;;5.90;;
21804;SDS011;11064;47.102;15.452;2023-05-20T11:08:53;7.43;;;5.50;;
21804;SDS011;11064;47.102;15.452;2023-05-20T11:11:20;5.55;;;5.05;;
21804;SDS011;11064;47.102;15.452;2023-05-20T11:13:50;8.82;;;6.05;;
21804;SDS011;11064;47.102;15.452;2023-05-20T11:16:18;7.18;;;5.57;;
21804;SDS011;11064;47.102;15.452;2023-05-20T11:18:47;7.75;;;6.10;;
21804;SDS011;11064;47.102;15.452;2023-05-20T11:21:13;5.97;;;5.38;;
21804;SDS011;11064;47.102;15.452;2023-05-20T11:23:40;6.70;;;6.00;;
21804;SDS011;11064;47.102;15.452;2023-05-20T11:26:06;6.75;;;5.80;;
21804;SDS011;11064;47.102;15.452;2023-05-20T11:28:32;7.63;;;5.93;;
21804;SDS011;11064;47.102;15.452;2023-05-20T11:31:00;6.32;;;5.72;;
21804;SDS011;11064;47.102;15.452;2023-05-20T11:33:26;7.03;;;5.75;;
21804;SDS011;11064;47.102;15.452;2023-05-20T11:35:52;7.05;;;5.43;;
21804;SDS011;11064;47.102;15.452;2023-05-20T11:38:18;7.10;;;5.70;;
21804;SDS011;11064;47.102;15.452;2023-05-20T11:40:46;8.05;;;5.90;;
21804;SDS011;11064;47.102;15.452;2023-05-20T11:43:18;7.68;;;5.45;;
21804;SDS011;11064;47.102;15.452;2023-05-20T11:45:52;6.38;;;5.60;;
21804;SDS011;11064;47.102;15.452;2023-05-20T11:48:19;8.68;;;5.90;;
21804;SDS011;11064;47.102;15.452;2023-05-20T11:50:46;8.90;;;6.05;;
21804;SDS011;11064;47.102;15.452;2023-05-20T11:53:13;9.27;;;6.40;;
21804;SDS011;11064;47.102;15.452;2023-05-20T11:55:44;8.18;;;5.95;;
21804;SDS011;11064;47.102;15.452;2023-05-20T11:58:17;7.43;;;5.82;;
21804;SDS011;11064;47.102;15.452;2023-05-20T12:00:43;7.60;;;6.03;;
21804;SDS011;11064;47.102;15.452;2023-05-20T12:03:09;8.35;;;5.97;;
21804;SDS011;11064;47.102;15.452;2023-05-20T12:05:35;7.82;;;6.18;;
21804;SDS011;11064;47.102;15.452;2023-05-20T12:08:02;8.85;;;6.47;;
21804;SDS011;11064;47.102;15.452;2023-05-20T12:10:28;8.88;;;6.25;;
21804;SDS011;11064;47.102;15.452;2023-05-20T12:12:54;7.85;;;6.60;;
21804;SDS011;11064;47.102;15.452;2023-05-20T12:15:20;10.50;;;8.57;;
21804;SDS011;11064;47.102;15.452;2023-05-20T12:17:47;13.50;;;10.63;;
21804;SDS011;11064;47.102;15.452;2023-05-20T12:20:15;11.65;;;8.57;;
21804;SDS011;11064;47.102;15.452;2023-05-20T12:22:45;24.25;;;21.83;;
21804;SDS011;11064;47.102;15.452;2023-05-20T12:25:11;56.47;;;46.13;;
21804;SDS011;11064;47.102;15.452;2023-05-20T12:27:39;57.80;;;41.15;;
21804;SDS011;11064;47.102;15.452;2023-05-20T12:30:06;8.27;;;7.47;;
21804;SDS011;11064;47.102;15.452;2023-05-20T12:32:34;11.55;;;9.18;;
21804;SDS011;11064;47.102;15.452;2023-05-20T12:35:01;17.33;;;12.75;;
21804;SDS011;11064;47.102;15.452;2023-05-20T12:37:27;8.95;;;6.70;;
21804;SDS011;11064;47.102;15.452;2023-05-20T12:39:53;9.70;;;7.45;;
21804;SDS011;11064;47.102;15.452;2023-05-20T12:42:19;7.78;;;6.93;;
21804;SDS011;11064;47.102;15.452;2023-05-20T12:44:45;7.82;;;6.32;;
21804;SDS011;11064;47.102;15.452;2023-05-20T12:47:11;10.15;;;6.50;;
21804;SDS011;11064;47.102;15.452;2023-05-20T12:49:37;8.18;;;5.80;;
21804;SDS011;11064;47.102;15.452;2023-05-20T12:52:02;8.30;;;6.28;;
21804;SDS011;11064;47.102;15.452;2023-05-20T12:54:28;8.15;;;6.05;;
21804;SDS011;11064;47.102;15.452;2023-05-20T12:56:54;7.70;;;5.55;;
21804;SDS011;11064;47.102;15.452;2023-05-20T12:59:20;11.43;;;5.88;;
21804;SDS011;11064;47.102;15.452;2023-05-20T13:01:46;7.18;;;6.30;;
21804;SDS011;11064;47.102;15.452;2023-05-20T13:04:12;7.43;;;6.15;;
21804;SDS011;11064;47.102;15.452;2023-05-20T13:06:38;11.07;;;6.20;;
21804;SDS011;11064;47.102;15.452;2023-05-20T13:09:04;7.50;;;5.93;;
21804;SDS011;11064;47.102;15.452;2023-05-20T13:11:29;7.78;;;5.78;;
21804;SDS011;11064;47.102;15.452;2023-05-20T13:13:55;9.93;;;6.50;;
21804;SDS011;11064;47.102;15.452;2023-05-20T13:16:21;8.70;;;6.18;;
21804;SDS011;11064;47.102;15.452;2023-05-20T13:18:50;9.37;;;6.60;;
21804;SDS011;11064;47.102;15.452;2023-05-20T13:21:16;6.55;;;5.90;;
21804;SDS011;11064;47.102;15.452;2023-05-20T13:23:43;9.30;;;6.80;;
21804;SDS011;11064;47.102;15.452;2023-05-20T13:26:09;7.25;;;6.20;;
21804;SDS011;11064;47.102;15.452;2023-05-20T13:28:35;8.13;;;6.75;;
21804;SDS011;11064;47.102;15.452;2023-05-20T13:31:03;9.15;;;5.80;;
21804;SDS011;11064;47.102;15.452;2023-05-20T13:33:30;7.90;;;6.00;;
21804;SDS011;11064;47.102;15.452;2023-05-20T13:35:56;6.45;;;5.85;;
21804;SDS011;11064;47.102;15.452;2023-05-20T13:38:22;7.97;;;5.82;;
21804;SDS011;11064;47.102;15.452;2023-05-20T13:40:48;7.10;;;5.50;;
21804;SDS011;11064;47.102;15.452;2023-05-20T13:43:14;7.13;;;5.97;;
21804;SDS011;11064;47.102;15.452;2023-05-20T13:45:41;8.30;;;6.05;;
21804;SDS011;11064;47.102;15.452;2023-05-20T13:48:07;11.18;;;5.65;;
21804;SDS011;11064;47.102;15.452;2023-05-20T13:50:32;8.27;;;6.00;;
21804;SDS011;11064;47.102;15.452;2023-05-20T13:52:58;8.73;;;6.32;;
21804;SDS011;11064;47.102;15.452;2023-05-20T13:55:24;8.23;;;5.75;;
21804;SDS011;11064;47.102;15.452;2023-05-20T13:57:50;6.57;;;5.88;;
21804;SDS011;11064;47.102;15.452;2023-05-20T14:00:18;9.18;;;5.93;;
21804;SDS011;11064;47.102;15.452;2023-05-20T14:02:44;8.40;;;6.10;;
21804;SDS011;11064;47.102;15.452;2023-05-20T14:05:11;8.80;;;6.28;;
21804;SDS011;11064;47.102;15.452;2023-05-20T14:07:37;6.80;;;5.82;;
21804;SDS011;11064;47.102;15.452;2023-05-20T14:10:04;6.90;;;6.20;;
21804;SDS011;11064;47.102;15.452;2023-05-20T14:12:30;8.02;;;6.28;;
21804;SDS011;11064;47.102;15.452;2023-05-20T14:14:56;8.23;;;6.22;;
21804;SDS011;11064;47.102;15.452;2023-05-20T14:17:22;9.15;;;5.80;;
21804;SDS011;11064;47.102;15.452;2023-05-20T14:19:47;7.05;;;6.35;;
21804;SDS011;11064;47.102;15.452;2023-05-20T14:22:13;9.13;;;6.40;;
21804;SDS011;11064;47.102;15.452;2023-05-20T14:24:39;6.75;;;5.90;;
21804;SDS011;11064;47.102;15.452;2023-05-20T14:27:05;7.03;;;5.82;;
21804;SDS011;11064;47.102;15.452;2023-05-20T14:29:31;7.00;;;6.22;;
21804;SDS011;11064;47.102;15.452;2023-05-20T14:31:57;7.18;;;6.40;;
21804;SDS011;11064;47.102;15.452;2023-05-20T14:34:22;7.50;;;6.65;;
21804;SDS011;11064;47.102;15.452;2023-05-20T14:36:48;7.95;;;6.20;;
21804;SDS011;11064;47.102;15.452;2023-05-20T14:39:14;8.27;;;6.20;;
21804;SDS011;11064;47.102;15.452;2023-05-20T14:41:41;7.55;;;6.47;;
21804;SDS011;11064;47.102;15.452;2023-05-20T14:44:06;7.30;;;6.22;;
21804;SDS011;11064;47.102;15.452;2023-05-20T14:46:32;7.57;;;6.00;;
21804;SDS011;11064;47.102;15.452;2023-05-20T14:48:58;8.95;;;6.50;;
21804;SDS011;11064;47.102;15.452;2023-05-20T14:51:24;7.22;;;5.85;;
21804;SDS011;11064;47.102;15.452;2023-05-20T14:53:50;7.35;;;6.38;;